createdAt,value
2018-07-19T00:05:02.878Z,0
2018-07-19T00:10:02.431Z,0
2018-07-19T00:20:02.476Z,0
2018-07-19T00:25:03.523Z,0
2018-07-19T00:30:02.807Z,0
2018-07-19T00:35:03.285Z,0
2018-07-19T00:40:03.299Z,0
2018-07-19T00:45:02.690Z,0
2018-07-19T00:50:03.122Z,0
2018-07-19T00:55:03.035Z,0
2018-07-19T01:00:02.429Z,0
2018-07-19T01:05:02.935Z,0
2018-07-19T01:10:03.125Z,0
2018-07-19T01:15:03.168Z,0
2018-07-19T01:20:03.404Z,0
2018-07-19T01:25:02.643Z,0
2018-07-19T01:30:03.116Z,0
2018-07-19T01:35:02.652Z,0
2018-07-19T01:40:03.198Z,0
2018-07-19T01:45:03.397Z,0
2018-07-19T01:50:02.866Z,0
2018-07-19T01:55:02.327Z,0
2018-07-19T02:00:03.469Z,0
2018-07-19T02:05:03.189Z,0
2018-07-19T02:10:03.338Z,0
2018-07-19T02:15:02.767Z,0
2018-07-19T02:20:03.926Z,0
2018-07-19T02:25:03.392Z,0
2018-07-19T02:30:02.903Z,0
2018-07-19T02:35:03.031Z,0
2018-07-19T02:40:02.511Z,0
2018-07-19T02:45:03.508Z,0
2018-07-19T02:50:02.412Z,0
2018-07-19T02:55:03.464Z,0
2018-07-19T03:00:03.259Z,2
2018-07-19T03:05:03.186Z,3
2018-07-19T03:10:02.620Z,7
2018-07-19T03:15:03.560Z,13
2018-07-19T03:20:03.146Z,24
2018-07-19T03:25:02.651Z,36
2018-07-19T03:30:03.336Z,47
2018-07-19T03:35:02.862Z,56
2018-07-19T03:40:03.108Z,66
2018-07-19T03:45:03.181Z,75
2018-07-19T03:50:03.289Z,90
2018-07-19T03:55:02.533Z,125
2018-07-19T04:00:03.106Z,206
2018-07-19T04:05:03.228Z,294
2018-07-19T04:10:02.435Z,345
2018-07-19T04:15:02.833Z,419
2018-07-19T04:20:02.381Z,526
2018-07-19T04:25:02.867Z,611
2018-07-19T04:30:02.551Z,691
2018-07-19T04:35:03.023Z,810
2018-07-19T04:40:03.169Z,929
2018-07-19T04:45:02.991Z,1000
2018-07-19T04:50:03.007Z,1000
2018-07-19T04:55:02.941Z,1000
2018-07-19T05:00:03.037Z,1000
2018-07-19T05:05:02.456Z,1000
2018-07-19T05:10:03.013Z,1000
2018-07-19T05:15:02.546Z,1000
2018-07-19T05:20:03.032Z,2000
2018-07-19T05:25:02.957Z,2000
2018-07-19T05:30:03.086Z,2000
2018-07-19T05:35:03.287Z,2000
2018-07-19T05:40:02.587Z,2000
2018-07-19T05:45:03.172Z,3000
2018-07-19T05:50:03.195Z,3000
2018-07-19T05:55:02.672Z,3000
2018-07-19T06:00:03.686Z,3000
2018-07-19T06:05:02.862Z,4000
2018-07-19T06:10:02.437Z,4000
2018-07-19T06:15:02.887Z,4000
2018-07-19T06:20:02.513Z,4000
2018-07-19T06:25:03.005Z,5000
2018-07-19T06:30:02.617Z,5000
2018-07-19T06:35:03.793Z,6000
2018-07-19T06:40:03.004Z,6000
2018-07-19T06:45:02.543Z,6000
2018-07-19T06:50:03.137Z,7000
2018-07-19T06:55:02.590Z,7000
2018-07-19T07:00:03.924Z,8000
2018-07-19T07:05:03.357Z,8000
2018-07-19T07:10:03.554Z,7000
2018-07-19T07:15:03.094Z,7000
2018-07-19T07:20:03.325Z,7000
2018-07-19T07:25:03.351Z,7000
2018-07-19T07:30:03.167Z,8000
2018-07-19T07:35:03.312Z,9000
2018-07-19T07:40:02.701Z,9000
2018-07-19T07:45:03.246Z,10000
2018-07-19T07:50:03.357Z,11000
2018-07-19T07:55:02.798Z,13000
2018-07-19T08:00:03.206Z,12000
2018-07-19T08:05:02.739Z,14000
2018-07-19T08:10:03.681Z,15000
2018-07-19T08:15:03.600Z,36000
2018-07-19T08:20:03.243Z,40000
2018-07-19T08:25:03.375Z,20000
2018-07-19T08:30:02.790Z,39000
2018-07-19T08:35:02.693Z,47000
2018-07-19T08:40:03.092Z,26000
2018-07-19T08:45:02.631Z,26000
2018-07-19T08:50:03.610Z,22000
2018-07-19T08:55:02.904Z,50000
2018-07-19T09:00:03.134Z,44000
2018-07-19T09:05:03.053Z,44000
2018-07-19T09:10:02.652Z,45000
2018-07-19T09:15:03.152Z,45000
2018-07-19T09:20:03.340Z,46000
2018-07-19T09:25:02.622Z,46000
2018-07-19T09:30:03.344Z,46000
2018-07-19T09:35:02.796Z,46000
2018-07-19T09:40:02.418Z,47000
2018-07-19T09:45:02.912Z,46000
2018-07-19T09:50:02.572Z,47000
2018-07-19T09:55:03.083Z,47000
2018-07-19T10:00:02.664Z,47000
2018-07-19T10:05:03.307Z,46000
2018-07-19T10:10:03.313Z,47000
2018-07-19T10:15:03.084Z,48000
2018-07-19T10:20:03.018Z,47000
2018-07-19T10:25:02.528Z,47000
2018-07-19T10:30:03.498Z,48000
2018-07-19T10:35:03.321Z,48000
2018-07-19T10:40:02.864Z,48000
2018-07-19T10:45:02.975Z,48000
2018-07-19T10:50:03.057Z,48000
2018-07-19T10:55:02.453Z,20000
2018-07-19T11:00:02.891Z,49000
2018-07-19T11:05:03.321Z,50000
2018-07-19T11:10:02.864Z,50000
2018-07-19T11:15:02.579Z,49000
2018-07-19T11:20:03.132Z,49000
2018-07-19T11:25:02.493Z,50000
2018-07-19T11:30:02.959Z,50000
2018-07-19T11:35:02.497Z,49000
2018-07-19T11:40:02.999Z,12000
2018-07-19T11:45:02.442Z,37000
2018-07-19T11:50:02.947Z,49000
2018-07-19T11:55:02.333Z,48000
2018-07-19T12:00:02.746Z,48000
2018-07-19T12:05:03.253Z,48000
2018-07-19T12:10:02.783Z,47000
2018-07-19T12:15:03.257Z,42000
2018-07-19T12:20:02.673Z,11000
2018-07-19T12:25:03.036Z,41000
2018-07-19T12:30:02.480Z,48000
2018-07-19T12:35:03.031Z,47000
2018-07-19T12:40:02.481Z,18000
2018-07-19T12:45:02.942Z,43000
2018-07-19T12:50:02.477Z,46000
2018-07-19T12:55:02.984Z,40000
2018-07-19T13:00:02.409Z,41000
2018-07-19T13:05:02.912Z,41000
2018-07-19T13:10:02.409Z,37000
2018-07-19T13:15:02.815Z,25000
2018-07-19T13:20:02.409Z,11000
2018-07-19T13:25:02.987Z,9000
2018-07-19T13:30:02.467Z,31000
2018-07-19T13:35:02.987Z,27000
2018-07-19T13:40:02.553Z,11000
2018-07-19T13:45:03.105Z,12000
2018-07-19T13:50:02.413Z,12000
2018-07-19T13:55:02.749Z,10000
2018-07-19T14:00:02.883Z,10000
2018-07-19T14:05:02.506Z,9000
2018-07-19T14:10:02.951Z,10000
2018-07-19T14:15:03.313Z,9000
2018-07-19T14:20:02.802Z,25000
2018-07-19T14:25:03.293Z,9000
2018-07-19T14:30:02.647Z,10000
2018-07-19T14:35:03.117Z,10000
2018-07-19T14:40:02.523Z,9000
2018-07-19T14:45:03.130Z,10000
2018-07-19T14:50:02.562Z,12000
2018-07-19T14:55:02.985Z,10000
2018-07-19T15:00:02.668Z,10000
2018-07-19T15:05:03.205Z,19000
2018-07-19T15:10:02.703Z,10000
2018-07-19T15:15:03.107Z,23000
2018-07-19T15:20:02.607Z,22000
2018-07-19T15:25:02.986Z,8000
2018-07-19T15:30:02.315Z,18000
2018-07-19T15:35:02.779Z,9000
2018-07-19T15:40:03.200Z,10000
2018-07-19T15:45:02.768Z,20000
2018-07-19T15:50:02.587Z,21000
2018-07-19T15:55:02.899Z,19000
2018-07-19T16:00:02.337Z,19000
2018-07-19T16:05:02.760Z,14000
2018-07-19T16:10:03.243Z,10000
2018-07-19T16:15:02.590Z,6000
2018-07-19T16:20:03.005Z,9000
2018-07-19T16:25:02.381Z,9000
2018-07-19T16:30:02.797Z,6000
2018-07-19T16:35:03.238Z,6000
2018-07-19T16:40:02.967Z,6000
2018-07-19T16:45:02.430Z,7000
2018-07-19T16:50:02.885Z,7000
2018-07-19T16:55:02.333Z,6000
2018-07-19T17:00:02.813Z,6000
2018-07-19T17:05:02.390Z,6000
2018-07-19T17:10:02.913Z,10000
2018-07-19T17:15:03.296Z,8000
2018-07-19T17:20:02.937Z,9000
2018-07-19T17:25:03.320Z,4000
2018-07-19T17:30:02.653Z,5000
2018-07-19T17:35:03.124Z,4000
2018-07-19T17:40:02.603Z,3000
2018-07-19T17:45:03.101Z,3000
2018-07-19T17:50:02.532Z,3000
2018-07-19T17:55:03.259Z,4000
2018-07-19T18:00:02.675Z,5000
2018-07-19T18:05:02.421Z,5000
2018-07-19T18:10:02.945Z,5000
2018-07-19T18:15:02.397Z,4000
2018-07-19T18:20:02.846Z,3000
2018-07-19T18:25:03.209Z,3000
2018-07-19T18:30:02.644Z,2000
2018-07-19T18:35:03.143Z,2000
2018-07-19T18:40:02.567Z,1000
2018-07-19T18:45:02.961Z,1000
2018-07-19T18:50:03.346Z,1000
2018-07-19T18:55:02.853Z,1000
2018-07-19T19:00:03.265Z,926
2018-07-19T19:05:02.926Z,807
2018-07-19T19:10:02.505Z,684
2018-07-19T19:15:02.968Z,587
2018-07-19T19:20:02.397Z,476
2018-07-19T19:25:02.740Z,387
2018-07-19T19:30:03.131Z,307
2018-07-19T19:35:02.522Z,191
2018-07-19T19:40:03.003Z,81
2018-07-19T19:45:02.745Z,66
2018-07-19T19:50:02.666Z,55
2018-07-19T19:55:03.126Z,43
2018-07-19T20:00:02.855Z,30
2018-07-19T20:05:02.374Z,20
2018-07-19T20:10:02.801Z,14
2018-07-19T20:15:03.249Z,8
2018-07-19T20:20:02.609Z,4
2018-07-19T20:25:02.992Z,1
2018-07-19T20:30:03.177Z,1
2018-07-19T20:35:02.535Z,0
2018-07-19T20:40:03.150Z,0
2018-07-19T20:45:02.780Z,0
2018-07-19T20:50:03.216Z,0
2018-07-19T20:55:02.765Z,0
2018-07-19T21:00:03.017Z,0
2018-07-19T21:05:02.981Z,0
2018-07-19T21:10:02.523Z,0
2018-07-19T21:15:03.315Z,0
2018-07-19T21:20:02.753Z,0
2018-07-19T21:25:03.235Z,0
2018-07-19T21:30:02.932Z,0
2018-07-19T21:35:03.339Z,0
2018-07-19T21:40:02.696Z,0
2018-07-19T21:45:03.282Z,0
2018-07-19T21:50:02.642Z,0
2018-07-19T21:55:02.973Z,0
2018-07-19T22:00:02.472Z,0
2018-07-19T22:05:03.301Z,0
2018-07-19T22:10:02.834Z,0
2018-07-19T22:15:03.428Z,0
2018-07-19T22:20:02.859Z,0
2018-07-19T22:25:02.400Z,0
2018-07-19T22:30:02.783Z,0
2018-07-19T22:35:03.326Z,0
2018-07-19T22:40:02.796Z,0
2018-07-19T22:45:03.165Z,0
2018-07-19T22:50:02.575Z,0
2018-07-19T22:55:02.978Z,0
2018-07-19T23:00:02.341Z,0
2018-07-19T23:05:03.027Z,0
2018-07-19T23:10:02.541Z,0
2018-07-19T23:15:02.867Z,0
2018-07-19T23:25:03.135Z,0
2018-07-19T23:30:02.505Z,0
2018-07-19T23:35:02.895Z,0
2018-07-19T23:40:02.327Z,0
2018-07-19T23:45:02.687Z,0
2018-07-19T23:50:03.067Z,0
2018-07-19T23:55:02.417Z,0
